Depesze METAR lotnisk w Polsce

EPWA EPMO EPKK EPLL EPWR EPKT EPGD EPPO EPRZ EPSC EPLB EPBY EPZG EPSY EPCE EPDA EPDE EPIR EPKS EPLK EPLY EPMB EPMI EPMM EPNA EPOK EPPR EPPW EPRA EPSN EPTM

METAR – format kodowanego raportu o pogodzie używany w meteorologii lotniczej i prognozie pogody. METAR jest akronimem od ang. Meteorological Aerodrome Report. Typowy METAR zawiera informację o temperaturze, ciśnieniu, temperaturze punktu rosy, sile i kierunku wiatru, opadzie, pokrywie chmur, wysokości podstawy chmur, widzialności, lecz może zawierać też inne informacje (np. stan dróg startowych).

Warszawa-Okęcie (EPWA)

METAR = EPWA 010930Z 26004KT 240V300 9999 SCT012 BKN018 02/M00 Q1001 NOSIG

STACJA........... EPWA - Warszawa-Okęcie (WAW)
POMIAR........... Wed Dec 1, 10:30 CET
WIATR............ zachodni (W) z prędkością 7 km/h
WIDZIALNOŚĆ...... powyżej 10 kilometrów
CHMURY........... zachmurzenie średnie (5/8-7/8)
TEMPERATURA...... 2°C
T.PUNKTU ROSY.... 0°C
WILGOTNOŚĆ....... 87%
T.ODCZUWALNA..... 0°C
CIŚNIENIE........ 1001 hPa
CIŚN.BEZWZGL..... 987 hPa
PROGNOZA......... bez nagłych zmian w ciągu 2h

Sprawdź też: Prognoza pogody Warszawa


Warszawa-Modlin (EPMO)

METAR = EPMO 010930Z 20006KT 170V230 7000 BKN006 01/01 Q1001 =

STACJA........... EPMO - Warszawa-Modlin (WMI)
POMIAR........... Wed Dec 1, 10:30 CET
WIATR............ południowo południowo-zachodni  (SSW) z prędkością 11 km/h
WIDZIALNOŚĆ...... 7000 metrów
CHMURY........... zachmurzenie średnie (5/8-7/8)
TEMPERATURA...... 1°C
T.PUNKTU ROSY.... 1°C
WILGOTNOŚĆ....... 100%
T.ODCZUWALNA..... -2°C
CIŚNIENIE........ 1001 hPa
CIŚN.BEZWZGL..... 988 hPa

Sprawdź też: Prognoza pogody Nowy Dwór Mazowiecki


Kraków-Balice (EPKK)

METAR = EPKK 010930Z 21006KT CAVOK 03/M01 Q1003

STACJA........... EPKK - Kraków-Balice (KRK)
POMIAR........... Wed Dec 1, 10:30 CET
WIATR............ południowo południowo-zachodni  (SSW) z prędkością 11 km/h
WIDZIALNOŚĆ...... powyżej 10 kilometrów
CHMURY........... bezchmurne niebo
TEMPERATURA...... 3°C
T.PUNKTU ROSY.... -1°C
WILGOTNOŚĆ....... 75%
T.ODCZUWALNA..... 0°C
CIŚNIENIE........ 1003 hPa
CIŚN.BEZWZGL..... 974 hPa

Sprawdź też: Prognoza pogody Kraków


Łódź-Lublinek (EPLL)

METAR = EPLL 010930Z 19005KT 130V230 9999 SCT009 01/M01 Q1001

STACJA........... EPLL - Łódź-Lublinek (LCJ)
POMIAR........... Wed Dec 1, 10:30 CET
WIATR............ południowy (S) z prędkością 9 km/h
WIDZIALNOŚĆ...... powyżej 10 kilometrów
CHMURY........... zachmurzenie małe (3/8-4/8)
TEMPERATURA...... 1°C
T.PUNKTU ROSY.... -1°C
WILGOTNOŚĆ....... 87%
T.ODCZUWALNA..... -2°C
CIŚNIENIE........ 1001 hPa
CIŚN.BEZWZGL..... 978 hPa

Sprawdź też: Prognoza pogody Łódź


Wrocław-Strachowice (EPWR)

METAR = EPWR 010930Z 17009KT 9999 -RA BKN031 04/02 Q0999

STACJA........... EPWR - Wrocław-Strachowice (WRO)
POMIAR........... Wed Dec 1, 10:30 CET
WIATR............ południowy (S) z prędkością 17 km/h
WIDZIALNOŚĆ...... powyżej 10 kilometrów
WARUNKI.......... słaby: deszcz 
CHMURY........... zachmurzenie średnie (5/8-7/8)
TEMPERATURA...... 4°C
T.PUNKTU ROSY.... 2°C
WILGOTNOŚĆ....... 87%
T.ODCZUWALNA..... 0°C
CIŚNIENIE........ 999 hPa
CIŚN.BEZWZGL..... 984 hPa

Sprawdź też: Prognoza pogody Wrocław


Katowice-Pyrzowice (EPKT)

METAR = EPKT 010930Z 19010KT 9999 FEW043 02/M01 Q1002

STACJA........... EPKT - Katowice-Pyrzowice (KTW)
POMIAR........... Wed Dec 1, 10:30 CET
WIATR............ południowy (S) z prędkością 19 km/h
WIDZIALNOŚĆ...... powyżej 10 kilometrów
CHMURY........... zachmurzenie niewielkie (1/8-2/8)
TEMPERATURA...... 2°C
T.PUNKTU ROSY.... -1°C
WILGOTNOŚĆ....... 81%
T.ODCZUWALNA..... -2°C
CIŚNIENIE........ 1002 hPa
CIŚN.BEZWZGL..... 965 hPa

Sprawdź też: Prognoza pogody Katowice


Gdańsk (EPGD)

METAR = EPGD 010930Z 17006KT 140V200 9999 BKN046 M01/M02 Q0996

STACJA........... EPGD - Gdańsk im. Lecha Wałęsy (GDN)
POMIAR........... Wed Dec 1, 10:30 CET
WIATR............ południowy (S) z prędkością 11 km/h
WIDZIALNOŚĆ...... powyżej 10 kilometrów
CHMURY........... zachmurzenie średnie (5/8-7/8)
TEMPERATURA...... -1°C
T.PUNKTU ROSY.... -2°C
WILGOTNOŚĆ....... 93%
T.ODCZUWALNA..... -5°C
CIŚNIENIE........ 996 hPa
CIŚN.BEZWZGL..... 978 hPa

Sprawdź też: Prognoza pogody Gdańsk


Poznań-Ławica (EPPO)

METAR = EPPO 010930Z 16008KT 7000 -SN OVC004 00/M00 Q0998

STACJA........... EPPO - Poznań-Ławica (POZ)
POMIAR........... Wed Dec 1, 10:30 CET
WIATR............ południowo południowo-wschodni (SSE) z prędkością 15 km/h
WIDZIALNOŚĆ...... 7000 metrów
WARUNKI.......... słaby: śnieg 
CHMURY........... zachmurzenie całkowite (8/8)
TEMPERATURA...... 0°C
T.PUNKTU ROSY.... 0°C
WILGOTNOŚĆ....... 100%
T.ODCZUWALNA..... -4°C
CIŚNIENIE........ 998 hPa
CIŚN.BEZWZGL..... 986 hPa

Sprawdź też: Prognoza pogody Poznań


Rzeszów-Jasionka (EPRZ)

METAR = EPRZ 010930Z 27007KT 9999 BKN020 OVC040 02/M01 Q1004

STACJA........... EPRZ - Rzeszów-Jasionka (RZE)
POMIAR........... Wed Dec 1, 10:30 CET
WIATR............ zachodni (W) z prędkością 13 km/h
WIDZIALNOŚĆ...... powyżej 10 kilometrów
CHMURY........... zachmurzenie całkowite (8/8)
TEMPERATURA...... 2°C
T.PUNKTU ROSY.... -1°C
WILGOTNOŚĆ....... 81%
T.ODCZUWALNA..... -1°C
CIŚNIENIE........ 1004 hPa
CIŚN.BEZWZGL..... 978 hPa

Sprawdź też: Prognoza pogody Rzeszów


Szczecin-Goleniów (EPSC)

METAR = EPSC 010930Z 14014KT 6000 -RA BKN003 OVC004 01/00 Q0993

STACJA........... EPSC - Szczecin-Goleniów (SZZ)
POMIAR........... Wed Dec 1, 10:30 CET
WIATR............ południowo wschodni (SE) z prędkością 26 km/h
WIDZIALNOŚĆ...... 6000 metrów
WARUNKI.......... słaby: deszcz 
CHMURY........... zachmurzenie całkowite (8/8)
TEMPERATURA...... 1°C
T.PUNKTU ROSY.... 0°C
WILGOTNOŚĆ....... 93%
T.ODCZUWALNA..... -4°C
CIŚNIENIE........ 993 hPa
CIŚN.BEZWZGL..... 987 hPa

Sprawdź też: Prognoza pogody Szczecin


Lublin-Świdnik (EPLB)

METAR = EPLB 010930Z 29006KT 9999 FEW014 SCT021 02/01 Q1002 =

STACJA........... EPLB - Lublin-Świdnik (LUZ)
POMIAR........... Wed Dec 1, 10:30 CET
WIATR............ zachodni północno-zachodni (WNW) z prędkością 11 km/h
WIDZIALNOŚĆ...... powyżej 10 kilometrów
CHMURY........... zachmurzenie małe (3/8-4/8)
TEMPERATURA...... 2°C
T.PUNKTU ROSY.... 1°C
WILGOTNOŚĆ....... 93%
T.ODCZUWALNA..... -1°C
CIŚNIENIE........ 1002 hPa
CIŚN.BEZWZGL..... 977 hPa

Sprawdź też: Prognoza pogody Lublin


Bydgoszcz-Szwederowo (EPBY)

METAR = EPBY 010930Z 17007KT 140V200 9999 SCT004 BKN006 01/M00 Q0998=

STACJA........... EPBY - Bydgoszcz-Szwederowo (BZG)
POMIAR........... Wed Dec 1, 10:30 CET
WIATR............ południowy (S) z prędkością 13 km/h
WIDZIALNOŚĆ...... powyżej 10 kilometrów
CHMURY........... zachmurzenie średnie (5/8-7/8)
TEMPERATURA...... 1°C
T.PUNKTU ROSY.... 0°C
WILGOTNOŚĆ....... 93%
T.ODCZUWALNA..... -3°C
CIŚNIENIE........ 998 hPa
CIŚN.BEZWZGL..... 989 hPa

Sprawdź też: Prognoza pogody Bydgoszcz


Zielona Góra-Babimost (EPZG)

METAR = EPZG 010930Z 15007KT 120V180 3100 -RA BR BKN005 OVC007 03/03 Q0997 =

STACJA........... EPZG - Zielona Góra-Babimost (IEG)
POMIAR........... Wed Dec 1, 10:30 CET
WIATR............ południowo południowo-wschodni (SSE) z prędkością 13 km/h
WIDZIALNOŚĆ...... 3100 metrów
WARUNKI.......... słaby: deszcz & zamglenie 
CHMURY........... zachmurzenie całkowite (8/8)
TEMPERATURA...... 3°C
T.PUNKTU ROSY.... 3°C
WILGOTNOŚĆ....... 100%
T.ODCZUWALNA..... -1°C
CIŚNIENIE........ 997 hPa
CIŚN.BEZWZGL..... 990 hPa

Sprawdź też: Prognoza pogody Zielona Góra


Szymany Olsztyn-Mazury (EPSY)

METAR = EPSY 010930Z 21005KT CAVOK M03/M04 Q1000=

STACJA........... EPSY - Olsztyn-Mazury (SZY)
POMIAR........... Wed Dec 1, 10:30 CET
WIATR............ południowo południowo-zachodni  (SSW) z prędkością 9 km/h
WIDZIALNOŚĆ...... powyżej 10 kilometrów
CHMURY........... bezchmurne niebo
TEMPERATURA...... -3°C
T.PUNKTU ROSY.... -4°C
WILGOTNOŚĆ....... 93%
T.ODCZUWALNA..... -7°C
CIŚNIENIE........ 1000 hPa
CIŚN.BEZWZGL..... 983 hPa

Sprawdź też: Prognoza pogody Olsztyn


Cewice (EPCE)

METAR = EPCE 010930Z 16005KT 110V200 9999 BKN005 OVC123 M00/M01 Q0996 RMK M005 097 8/6=

STACJA........... EPCE - Cewice
POMIAR........... Wed Dec 1, 10:30 CET
WIATR............ południowo południowo-wschodni (SSE) z prędkością 9 km/h
WIDZIALNOŚĆ...... powyżej 10 kilometrów
CHMURY........... zachmurzenie całkowite (8/8)
TEMPERATURA...... 0°C
T.PUNKTU ROSY.... -1°C
WILGOTNOŚĆ....... 93%
T.ODCZUWALNA..... -3°C
CIŚNIENIE........ 996 hPa
CIŚN.BEZWZGL..... 977 hPa

Darłowo (EPDA)

METAR = EPDA 010930Z 16010KT 090V190 9999 OVC009 02/00 Q0995 RMK 016 092 8/8=

STACJA........... EPDA - Darłowo
POMIAR........... Wed Dec 1, 10:30 CET
WIATR............ południowo południowo-wschodni (SSE) z prędkością 19 km/h
WIDZIALNOŚĆ...... powyżej 10 kilometrów
CHMURY........... zachmurzenie całkowite (8/8)
TEMPERATURA...... 2°C
T.PUNKTU ROSY.... 0°C
WILGOTNOŚĆ....... 87%
T.ODCZUWALNA..... -2°C
CIŚNIENIE........ 995 hPa
CIŚN.BEZWZGL..... 995 hPa

Dęblin (EPDE)

METAR = EPDE 010930Z 24004KT 9999 BKN045 01/M02 Q1002 RMK 008 082 5/5=

STACJA........... EPDE - Dęblin
POMIAR........... Wed Dec 1, 10:30 CET
WIATR............ zachodni południowo-zachodni (WSW) z prędkością 7 km/h
WIDZIALNOŚĆ...... powyżej 10 kilometrów
CHMURY........... zachmurzenie średnie (5/8-7/8)
TEMPERATURA...... 1°C
T.PUNKTU ROSY.... -2°C
WILGOTNOŚĆ....... 81%
T.ODCZUWALNA..... -1°C
CIŚNIENIE........ 1002 hPa
CIŚN.BEZWZGL..... 987 hPa

Inowrocław-Latkowo (EPIR)

METAR = EPIR 010930Z 16012KT 2000 BR OVC005 00/M01 Q0998 RMK 001 095 8/8=

STACJA........... EPIR - Inowrocław-Latkowo
POMIAR........... Wed Dec 1, 10:30 CET
WIATR............ południowo południowo-wschodni (SSE) z prędkością 22 km/h
WIDZIALNOŚĆ...... 2000 metrów
WARUNKI.......... zamglenie 
CHMURY........... zachmurzenie całkowite (8/8)
TEMPERATURA...... 0°C
T.PUNKTU ROSY.... -1°C
WILGOTNOŚĆ....... 93%
T.ODCZUWALNA..... -6°C
CIŚNIENIE........ 998 hPa
CIŚN.BEZWZGL..... 988 hPa

Poznań-Krzesiny (EPKS)

METAR = EPKS 010930Z 16008KT 130V190 1500 SN BKN005 OVC013 01/M00 Q0998 RMK 005 096 8/5=

STACJA........... EPKS - Poznań-Krzesiny
POMIAR........... Wed Dec 1, 10:30 CET
WIATR............ południowo południowo-wschodni (SSE) z prędkością 15 km/h
WIDZIALNOŚĆ...... 1500 metrów
WARUNKI.......... śnieg 
CHMURY........... zachmurzenie całkowite (8/8)
TEMPERATURA...... 1°C
T.PUNKTU ROSY.... 0°C
WILGOTNOŚĆ....... 93%
T.ODCZUWALNA..... -3°C
CIŚNIENIE........ 998 hPa
CIŚN.BEZWZGL..... 988 hPa

Łask (EPLK)

METAR = EPLK 010930Z 18006KT 150V210 9999 FEW009 BKN015 BKN070 01/01 Q1001 RMK 011 100 7/2=

STACJA........... EPLK - Łask
POMIAR........... Wed Dec 1, 10:30 CET
WIATR............ południowy (S) z prędkością 11 km/h
WIDZIALNOŚĆ...... powyżej 10 kilometrów
CHMURY........... zachmurzenie średnie (5/8-7/8)
TEMPERATURA...... 1°C
T.PUNKTU ROSY.... 1°C
WILGOTNOŚĆ....... 100%
T.ODCZUWALNA..... -2°C
CIŚNIENIE........ 1001 hPa
CIŚN.BEZWZGL..... 977 hPa

Łęczyca (EPLY)

METAR = EPLY 010930Z 20008KT 9999 BKN150 02/M00 Q1000 RMK 017 087 7/7=

STACJA........... EPLY - Łęczyca
POMIAR........... Wed Dec 1, 10:30 CET
WIATR............ południowo południowo-zachodni  (SSW) z prędkością 15 km/h
WIDZIALNOŚĆ...... powyżej 10 kilometrów
CHMURY........... zachmurzenie średnie (5/8-7/8)
TEMPERATURA...... 2°C
T.PUNKTU ROSY.... 0°C
WILGOTNOŚĆ....... 87%
T.ODCZUWALNA..... -2°C
CIŚNIENIE........ 1000 hPa
CIŚN.BEZWZGL..... 986 hPa

Malbork (EPMB)

METAR = EPMB 010930Z 17007KT 9999 OVC050 M00/M00 Q0998 RMK M001 098 8/8=

STACJA........... EPMB - Malbork
POMIAR........... Wed Dec 1, 10:30 CET
WIATR............ południowy (S) z prędkością 13 km/h
WIDZIALNOŚĆ...... powyżej 10 kilometrów
CHMURY........... zachmurzenie całkowite (8/8)
TEMPERATURA...... 0°C
T.PUNKTU ROSY.... 0°C
WILGOTNOŚĆ....... 100%
T.ODCZUWALNA..... -4°C
CIŚNIENIE........ 998 hPa
CIŚN.BEZWZGL..... 997 hPa

Mirosławiec (EPMI)

METAR = EPMI 010930Z 16010KT 1600 -SG BR OVC004 00/M00 Q0995 RMK 000 097 8/8=

STACJA........... EPMI - Mirosławiec
POMIAR........... Wed Dec 1, 10:30 CET
WIATR............ południowo południowo-wschodni (SSE) z prędkością 19 km/h
WIDZIALNOŚĆ...... 1600 metrów
WARUNKI.......... słaby: śnieg ziarnisty & zamglenie 
CHMURY........... zachmurzenie całkowite (8/8)
TEMPERATURA...... 0°C
T.PUNKTU ROSY.... 0°C
WILGOTNOŚĆ....... 100%
T.ODCZUWALNA..... -5°C
CIŚNIENIE........ 995 hPa
CIŚN.BEZWZGL..... 976 hPa

Mińsk Mazowiecki (EPMM)

METAR = EPMM 010930Z 25007KT 220V280 9999 SCT010 BKN038 00/M00 Q1001 RMK 000 099 6/4=

STACJA........... EPMM - Mińsk Mazowiecki
POMIAR........... Wed Dec 1, 10:30 CET
WIATR............ zachodni południowo-zachodni (WSW) z prędkością 13 km/h
WIDZIALNOŚĆ...... powyżej 10 kilometrów
CHMURY........... zachmurzenie średnie (5/8-7/8)
TEMPERATURA...... 0°C
T.PUNKTU ROSY.... 0°C
WILGOTNOŚĆ....... 100%
T.ODCZUWALNA..... -4°C
CIŚNIENIE........ 1001 hPa
CIŚN.BEZWZGL..... 978 hPa

Nadarzyce (EPNA)

METAR = EPNA 010930Z NIL=

STACJA........... EPNA - Nadarzyce
POMIAR........... Wed Dec 1, 10:30 CET
DEPESZA.......... brak aktualnej prognozy w treści depeszy

Gdynia-Kosakowo (EPOK)

METAR = EPOK 010930Z 18007KT 9999 BKN049 01/M02 Q0997 RMK 008 080 7/7=

STACJA........... EPOK - Gdynia-Kosakowo
POMIAR........... Wed Dec 1, 10:30 CET
WIATR............ południowy (S) z prędkością 13 km/h
WIDZIALNOŚĆ...... powyżej 10 kilometrów
CHMURY........... zachmurzenie średnie (5/8-7/8)
TEMPERATURA...... 1°C
T.PUNKTU ROSY.... -2°C
WILGOTNOŚĆ....... 81%
T.ODCZUWALNA..... -3°C
CIŚNIENIE........ 997 hPa
CIŚN.BEZWZGL..... 991 hPa

Pruszcz Gdański (EPPR)

METAR = EPPR 010930Z 14004KT 9999 BKN054 M01/M02 Q0998 RMK M007 093 6/6=

STACJA........... EPPR - Pruszcz Gdański
POMIAR........... Wed Dec 1, 10:30 CET
WIATR............ południowo wschodni (SE) z prędkością 7 km/h
WIDZIALNOŚĆ...... powyżej 10 kilometrów
CHMURY........... zachmurzenie średnie (5/8-7/8)
TEMPERATURA...... -1°C
T.PUNKTU ROSY.... -2°C
WILGOTNOŚĆ....... 93%
T.ODCZUWALNA..... -4°C
CIŚNIENIE........ 998 hPa
CIŚN.BEZWZGL..... 998 hPa

Powidz (EPPW)

METAR = EPPW 010930Z 18008KT 9999 SCT006 BKN040 01/01 Q0999 RMK 007 100 7/3=

STACJA........... EPPW - Powidz
POMIAR........... Wed Dec 1, 10:30 CET
WIATR............ południowy (S) z prędkością 15 km/h
WIDZIALNOŚĆ...... powyżej 10 kilometrów
CHMURY........... zachmurzenie średnie (5/8-7/8)
TEMPERATURA...... 1°C
T.PUNKTU ROSY.... 1°C
WILGOTNOŚĆ....... 100%
T.ODCZUWALNA..... -3°C
CIŚNIENIE........ 999 hPa
CIŚN.BEZWZGL..... 985 hPa

Radom-Sadków (EPRA)

METAR = EPRA 010930Z 22004KT 9999 BKN040 01/M01 Q1002 RMK 011 084 7/7=

STACJA........... EPRA - Radom-Sadków
POMIAR........... Wed Dec 1, 10:30 CET
WIATR............ południowo-zachodni (SW) z prędkością 7 km/h
WIDZIALNOŚĆ...... powyżej 10 kilometrów
CHMURY........... zachmurzenie średnie (5/8-7/8)
TEMPERATURA...... 1°C
T.PUNKTU ROSY.... -1°C
WILGOTNOŚĆ....... 87%
T.ODCZUWALNA..... -1°C
CIŚNIENIE........ 1002 hPa
CIŚN.BEZWZGL..... 979 hPa

Świdwin (EPSN)

METAR = EPSN 010930Z 16010KT 1500 SN BKN004 OVC011 00/M00 Q0994 RMK 003 095 8/6=

STACJA........... EPSN - Świdwin
POMIAR........... Wed Dec 1, 10:30 CET
WIATR............ południowo południowo-wschodni (SSE) z prędkością 19 km/h
WIDZIALNOŚĆ...... 1500 metrów
WARUNKI.......... śnieg 
CHMURY........... zachmurzenie całkowite (8/8)
TEMPERATURA...... 0°C
T.PUNKTU ROSY.... 0°C
WILGOTNOŚĆ....... 100%
T.ODCZUWALNA..... -5°C
CIŚNIENIE........ 994 hPa
CIŚN.BEZWZGL..... 980 hPa

Tomaszów Mazowiecki (EPTM)

METAR = EPTM 010930Z 21006KT 9999 FEW007 SCT017 BKN200 02/M00 Q1001 RMK 016 088 5/2=

STACJA........... EPTM - Tomaszów Mazowiecki
POMIAR........... Wed Dec 1, 10:30 CET
WIATR............ południowo południowo-zachodni  (SSW) z prędkością 11 km/h
WIDZIALNOŚĆ...... powyżej 10 kilometrów
CHMURY........... zachmurzenie średnie (5/8-7/8)
TEMPERATURA...... 2°C
T.PUNKTU ROSY.... 0°C
WILGOTNOŚĆ....... 87%
T.ODCZUWALNA..... -1°C
CIŚNIENIE........ 1001 hPa
CIŚN.BEZWZGL..... 980 hPa